Main page
METAR-TAF:

METAR-TAF

Airports :

Webster City Municipal Airport

Webster City, Iowa, United States

latitude: 42-26N, longitude: 093-52W, elevation: 1122 ft

Current weather observation

The report was made 12 minutes ago, at 02:35 UTC
Wind 9 mph from the West/Northwest
Temperature 61°F
Humidity 51%
Pressure 29.70 in. Hg
Visibility: 10 miles
Few clouds at a height of 8000 ft
Overcast at a height of 11000 ft

METAR: KEBS 230235Z AUTO 29008KT 10SM FEW080 OVC110 16/06 A2970 RMK AO2

Time: 21:47 (02:47 UTC)


TAF: missing

Weather observations and forecasts of more than 4000 airports (METAR and TAF reports).

The available stations are represented by yellow and red dots on the map.

Hover mouse over dot to see the name of the station.

Then click to see weather observations and forecasts.

To change the map : click on the green buttons with a black cross to zoom in, on the green button with a dash to zoom out, or on the green arrows for adjacent maps.


METAR-TAF: